Time;durP1;ratioP1;P1;durP2;ratioP2;P2;SDS_P1;SDS_P2;PMS_P1;PMS_P2;Temp;Humidity;BMP_temperature;BMP_pressure;BME280_temperature;BME280_humidity;BME280_pressure;Samples;Min_cycle;Max_cycle;Signal;HPM_P1;HPM_P2
2023/07/06 00:01:29;;;;;;;2.05;1.33;;;11.80;99.90;;;;;;5070112;28;20098;-61
2023/07/06 00:03:56;;;;;;;1.67;1.05;;;11.90;99.90;;;;;;5070922;28;20102;-61
2023/07/06 00:06:22;;;;;;;2.55;1.38;;;11.90;99.90;;;;;;5072011;28;20043;-61
2023/07/06 00:08:48;;;;;;;6.35;1.63;;;11.90;99.90;;;;;;5070032;28;20047;-61
2023/07/06 00:11:13;;;;;;;6.43;1.50;;;11.90;99.90;;;;;;5070778;28;20037;-61
2023/07/06 00:13:40;;;;;;;4.95;1.27;;;11.90;99.90;;;;;;5070658;28;20044;-61
2023/07/06 00:16:07;;;;;;;4.28;1.35;;;11.90;99.90;;;;;;5070124;28;20032;-61
2023/07/06 00:18:33;;;;;;;5.03;2.17;;;11.90;99.90;;;;;;5072026;28;20039;-60
2023/07/06 00:21:00;;;;;;;5.50;1.70;;;11.80;99.90;;;;;;5070538;28;20089;-61
2023/07/06 00:23:26;;;;;;;4.25;2.50;;;11.80;99.90;;;;;;5053219;28;20044;-61
2023/07/06 00:25:52;;;;;;;6.07;1.80;;;11.80;99.90;;;;;;5070617;28;20044;-61
2023/07/06 00:28:28;;;;;;;3.45;1.55;;;11.80;99.90;;;;;;5071886;28;20508;-61
2023/07/06 00:30:57;;;;;;;4.43;1.65;;;11.80;99.90;;;;;;5070345;28;20049;-61
2023/07/06 00:33:23;;;;;;;2.90;1.30;;;11.80;99.90;;;;;;5070153;28;20056;-60
2023/07/06 00:35:50;;;;;;;4.00;1.40;;;11.80;99.90;;;;;;5069592;28;20041;-60
2023/07/06 00:38:18;;;;;;;3.22;1.45;;;11.80;99.90;;;;;;5070007;28;20051;-61
2023/07/06 00:40:47;;;;;;;2.53;1.52;;;11.80;99.90;;;;;;5070232;28;20068;-60
2023/07/06 00:43:18;;;;;;;4.30;1.63;;;11.80;99.90;;;;;;5069374;28;20485;-60
2023/07/06 00:45:45;;;;;;;4.32;2.00;;;11.70;99.90;;;;;;5070123;28;20141;-60
2023/07/06 00:48:33;;;;;;;4.43;2.17;;;11.70;99.90;;;;;;5071381;28;20154;-60
2023/07/06 00:51:04;;;;;;;2.95;1.15;;;11.70;99.90;;;;;;5069188;28;20048;-60
2023/07/06 00:53:35;;;;;;;3.15;1.45;;;11.80;99.90;;;;;;5070658;28;20044;-60
2023/07/06 00:56:02;;;;;;;2.20;1.20;;;11.70;99.90;;;;;;5070010;28;20040;-61
2023/07/06 00:58:39;;;;;;;5.97;2.15;;;11.70;99.90;;;;;;5069335;28;20037;-60
2023/07/06 01:01:08;;;;;;;3.60;1.75;;;11.70;99.90;;;;;;5070080;28;20619;-60
2023/07/06 01:03:43;;;;;;;2.72;1.42;;;11.70;99.90;;;;;;5069080;28;20043;-61
2023/07/06 01:06:27;;;;;;;3.53;1.52;;;11.70;99.90;;;;;;5069898;28;20154;-61
2023/07/06 01:08:54;;;;;;;3.90;1.77;;;11.70;99.90;;;;;;5070897;28;20046;-60
2023/07/06 01:11:21;;;;;;;7.45;1.80;;;11.70;99.90;;;;;;5068821;28;20040;-60
2023/07/06 01:13:52;;;;;;;3.90;2.05;;;11.70;99.90;;;;;;5052818;28;20052;-60
2023/07/06 01:16:25;;;;;;;3.42;1.48;;;11.70;99.90;;;;;;5069488;28;20078;-60
2023/07/06 01:19:20;;;;;;;4.63;2.38;;;11.70;99.90;;;;;;5068761;28;20477;-60
2023/07/06 01:21:55;;;;;;;4.80;1.45;;;11.70;99.90;;;;;;5069260;28;20056;-60
2023/07/06 01:24:36;;;;;;;5.72;2.28;;;11.60;99.90;;;;;;5052937;28;20140;-61
2023/07/06 01:27:32;;;;;;;2.65;1.40;;;11.60;99.90;;;;;;5070656;28;20444;-60
2023/07/06 01:30:26;;;;;;;6.22;1.85;;;11.60;99.90;;;;;;5069330;28;20393;-60
2023/07/06 01:33:03;;;;;;;5.88;1.05;;;11.60;99.90;;;;;;5069683;28;20051;-60
2023/07/06 01:35:45;;;;;;;1.73;0.90;;;11.60;99.90;;;;;;5069111;28;20051;-60
2023/07/06 01:38:12;;;;;;;6.28;1.75;;;11.60;99.90;;;;;;5069031;28;20044;-61
2023/07/06 01:40:38;;;;;;;1.45;0.88;;;11.70;99.90;;;;;;5068395;28;20029;-60
2023/07/06 01:43:03;;;;;;;1.85;1.38;;;11.60;99.90;;;;;;5069338;28;20036;-60
2023/07/06 01:45:30;;;;;;;3.95;1.38;;;11.60;99.90;;;;;;5068415;28;20051;-60
2023/07/06 01:48:01;;;;;;;2.70;1.25;;;11.60;99.90;;;;;;5070298;28;20050;-60
2023/07/06 01:51:10;;;;;;;3.08;1.33;;;11.70;99.90;;;;;;5068978;28;20047;-60
2023/07/06 01:53:52;;;;;;;2.50;1.27;;;11.70;99.90;;;;;;5046116;28;20508;-60
2023/07/06 01:56:28;;;;;;;2.55;1.48;;;11.70;99.90;;;;;;5070323;28;20098;-60
2023/07/06 01:59:03;;;;;;;4.03;1.55;;;11.70;99.90;;;;;;5068884;28;20040;-60
2023/07/06 02:01:38;;;;;;;2.03;0.90;;;11.70;99.90;;;;;;5068616;28;20127;-60
2023/07/06 02:04:07;;;;;;;2.42;1.00;;;11.60;99.90;;;;;;5068670;28;20040;-60
2023/07/06 02:06:35;;;;;;;2.53;1.25;;;11.60;99.90;;;;;;5068376;28;20048;-60
2023/07/06 02:09:02;;;;;;;3.05;1.55;;;11.60;99.90;;;;;;5070235;28;20102;-60
2023/07/06 02:11:28;;;;;;;1.70;1.05;;;11.60;99.90;;;;;;5052051;28;20041;-61
2023/07/06 02:13:54;;;;;;;2.78;1.63;;;11.60;99.90;;;;;;5051738;28;20041;-60
2023/07/06 02:16:20;;;;;;;4.47;1.88;;;11.70;99.90;;;;;;5068800;28;20040;-61
2023/07/06 02:18:46;;;;;;;3.45;1.48;;;11.70;99.90;;;;;;5070195;28;20072;-61
2023/07/06 02:21:11;;;;;;;2.15;1.30;;;11.80;99.90;;;;;;5068153;28;20496;-61
2023/07/06 02:23:37;;;;;;;3.63;1.05;;;11.80;99.90;;;;;;5069900;28;20036;-61
2023/07/06 02:26:04;;;;;;;1.90;0.95;;;11.80;99.90;;;;;;5070005;28;20087;-61
2023/07/06 02:28:30;;;;;;;2.33;1.30;;;11.80;99.90;;;;;;5068017;28;20114;-61
2023/07/06 02:30:58;;;;;;;2.45;1.50;;;11.80;99.90;;;;;;5067093;28;20481;-61
2023/07/06 02:33:28;;;;;;;3.30;1.10;;;11.80;99.90;;;;;;5068439;28;20123;-61
2023/07/06 02:35:54;;;;;;;3.42;1.17;;;11.80;99.90;;;;;;5068324;28;20048;-61
2023/07/06 02:38:21;;;;;;;2.78;1.58;;;11.90;99.90;;;;;;5068621;28;20427;-61
2023/07/06 02:40:48;;;;;;;2.30;0.93;;;11.90;99.90;;;;;;5069830;28;20040;-61
2023/07/06 02:43:14;;;;;;;2.15;0.95;;;11.90;99.90;;;;;;5068021;28;20400;-61
2023/07/06 02:45:40;;;;;;;1.98;0.95;;;11.90;99.90;;;;;;5068402;28;20048;-61
2023/07/06 02:48:06;;;;;;;2.72;1.65;;;11.90;99.90;;;;;;5069650;28;20113;-61
2023/07/06 02:50:32;;;;;;;3.05;1.02;;;11.90;99.90;;;;;;5069108;28;20072;-61
2023/07/06 02:52:58;;;;;;;2.80;1.65;;;11.90;99.90;;;;;;5068058;28;20131;-61
2023/07/06 02:55:27;;;;;;;4.00;1.67;;;12.00;99.90;;;;;;5068249;28;20113;-62
2023/07/06 02:57:54;;;;;;;4.32;1.20;;;12.00;99.90;;;;;;5068615;28;20051;-61
2023/07/06 03:00:20;;;;;;;2.55;1.40;;;12.00;99.90;;;;;;5069309;28;20049;-61
2023/07/06 03:02:49;;;;;;;4.18;1.40;;;12.00;99.90;;;;;;5068065;28;20044;-61
2023/07/06 03:05:22;;;;;;;3.63;1.60;;;12.00;99.90;;;;;;5068554;28;20050;-61
2023/07/06 03:07:54;;;;;;;3.45;1.50;;;12.10;99.90;;;;;;5068579;28;20079;-61
2023/07/06 03:10:22;;;;;;;1.58;1.00;;;12.10;99.90;;;;;;5067883;28;20127;-61
2023/07/06 03:12:48;;;;;;;2.47;1.33;;;12.10;99.90;;;;;;5068189;28;20041;-61
2023/07/06 03:15:15;;;;;;;2.83;1.45;;;12.10;99.90;;;;;;5068830;28;20048;-61
2023/07/06 03:17:42;;;;;;;3.15;1.77;;;12.10;99.90;;;;;;5071156;28;20044;-61
2023/07/06 03:20:16;;;;;;;3.40;1.52;;;12.10;99.90;;;;;;5072992;28;20029;-61
2023/07/06 03:22:45;;;;;;;3.97;1.95;;;12.10;99.90;;;;;;5071973;28;20040;-61
2023/07/06 03:25:13;;;;;;;10.00;1.75;;;12.10;99.90;;;;;;5070551;28;20048;-61
2023/07/06 03:27:41;;;;;;;3.63;2.15;;;12.10;99.90;;;;;;5070727;28;20489;-61
2023/07/06 03:30:10;;;;;;;4.65;1.75;;;12.10;99.90;;;;;;5055128;28;20032;-61
2023/07/06 03:32:37;;;;;;;5.32;2.20;;;12.10;99.90;;;;;;5072063;28;20037;-61
2023/07/06 03:35:12;;;;;;;5.20;1.85;;;12.20;99.90;;;;;;5071378;28;20037;-61
2023/07/06 03:37:41;;;;;;;3.83;1.73;;;12.20;99.90;;;;;;5072276;28;20107;-61
2023/07/06 03:40:10;;;;;;;5.38;2.35;;;12.20;99.90;;;;;;5071275;28;20033;-61
2023/07/06 03:42:42;;;;;;;4.40;1.90;;;12.20;99.90;;;;;;5071297;28;20114;-61
2023/07/06 03:45:10;;;;;;;3.60;1.33;;;12.20;99.90;;;;;;5070674;28;20056;-61
2023/07/06 03:47:37;;;;;;;5.38;2.20;;;12.20;99.90;;;;;;5071500;28;20041;-61
2023/07/06 03:50:04;;;;;;;5.28;2.13;;;12.20;99.90;;;;;;5071204;28;20044;-61
2023/07/06 03:52:30;;;;;;;4.10;1.92;;;12.30;99.90;;;;;;5070112;28;20048;-61
2023/07/06 03:54:59;;;;;;;3.47;1.70;;;12.30;99.90;;;;;;5072387;28;20115;-61
2023/07/06 03:57:27;;;;;;;5.60;1.98;;;12.40;99.90;;;;;;5072202;28;20060;-61
2023/07/06 03:59:53;;;;;;;3.78;1.88;;;12.40;99.90;;;;;;5070211;28;20389;-61
2023/07/06 04:02:20;;;;;;;3.17;1.45;;;12.50;99.90;;;;;;5071211;28;20123;-61
2023/07/06 04:04:46;;;;;;;4.03;1.80;;;12.50;99.90;;;;;;5071137;28;20040;-61
2023/07/06 04:07:12;;;;;;;5.53;2.28;;;12.50;99.90;;;;;;5071760;28;20048;-61
2023/07/06 04:09:39;;;;;;;9.73;1.60;;;12.60;99.90;;;;;;5070787;28;20044;-61
2023/07/06 04:12:08;;;;;;;3.95;1.88;;;12.60;99.90;;;;;;5070883;28;20044;-61
2023/07/06 04:14:34;;;;;;;6.13;2.40;;;12.60;99.90;;;;;;5070329;28;20378;-61
2023/07/06 04:17:00;;;;;;;4.07;1.40;;;12.60;99.90;;;;;;5071011;28;20039;-61
2023/07/06 04:19:26;;;;;;;10.90;1.85;;;12.60;99.90;;;;;;5070526;28;20416;-61
2023/07/06 04:21:56;;;;;;;3.90;1.85;;;12.50;99.90;;;;;;5068271;28;20033;-61
2023/07/06 04:24:25;;;;;;;3.20;1.77;;;12.50;99.90;;;;;;5070886;28;20040;-61
2023/07/06 04:26:51;;;;;;;3.97;1.73;;;12.50;99.90;;;;;;5070821;28;20501;-61
2023/07/06 04:29:17;;;;;;;3.17;2.00;;;12.50;99.90;;;;;;5071675;28;20048;-61
2023/07/06 04:31:44;;;;;;;6.10;1.73;;;12.50;99.90;;;;;;5070504;28;20040;-61
2023/07/06 04:34:09;;;;;;;5.03;2.10;;;12.50;99.90;;;;;;5069984;28;20037;-61
2023/07/06 04:36:35;;;;;;;5.13;2.47;;;12.50;99.90;;;;;;5070396;28;20377;-61
2023/07/06 04:39:06;;;;;;;5.93;2.20;;;12.60;99.90;;;;;;5071591;28;20552;-61
2023/07/06 04:41:34;;;;;;;5.10;2.47;;;12.60;99.90;;;;;;5069599;28;20076;-61
2023/07/06 04:44:00;;;;;;;6.05;2.55;;;12.60;99.90;;;;;;5070149;28;20593;-61
2023/07/06 04:46:27;;;;;;;3.53;1.38;;;12.70;99.90;;;;;;5053578;28;20039;-62
2023/07/06 04:48:53;;;;;;;3.55;1.63;;;12.80;99.90;;;;;;5069616;28;20426;-61
2023/07/06 04:51:19;;;;;;;6.18;1.80;;;12.80;99.90;;;;;;5070970;28;20110;-61
2023/07/06 04:53:45;;;;;;;3.83;1.73;;;12.90;99.90;;;;;;5071380;28;20102;-61
2023/07/06 04:56:11;;;;;;;4.03;2.38;;;13.00;99.90;;;;;;5070422;28;20036;-61
2023/07/06 04:58:38;;;;;;;7.40;2.50;;;13.00;99.90;;;;;;5069689;28;20069;-61
2023/07/06 05:01:06;;;;;;;3.58;1.73;;;13.10;99.90;;;;;;5069837;28;20098;-61
2023/07/06 05:03:32;;;;;;;6.50;1.67;;;13.20;99.90;;;;;;5069442;28;20040;-61
2023/07/06 05:06:07;;;;;;;5.32;1.95;;;13.20;99.90;;;;;;5069836;28;20481;-61
2023/07/06 05:08:33;;;;;;;4.35;1.77;;;13.30;99.90;;;;;;5070398;28;20190;-62
2023/07/06 05:11:03;;;;;;;3.72;1.60;;;13.40;99.90;;;;;;5069497;28;20047;-61
2023/07/06 05:13:29;;;;;;;;;;;13.40;99.90;;;;;;5071435;28;20036;-61
2023/07/06 05:15:55;;;;;;;9.00;1.92;;;13.50;99.90;;;;;;5070369;28;19958;-61
2023/07/06 05:18:21;;;;;;;5.85;2.17;;;13.60;99.90;;;;;;5068888;28;20457;-61
2023/07/06 05:20:51;;;;;;;5.25;2.78;;;13.70;99.90;;;;;;5070564;28;20076;-61
2023/07/06 05:23:18;;;;;;;8.95;2.13;;;13.80;99.90;;;;;;5068788;28;20040;-62
2023/07/06 05:25:45;;;;;;;8.32;2.60;;;13.90;99.90;;;;;;5070988;28;20036;-61
2023/07/06 05:28:11;;;;;;;4.82;1.95;;;14.00;99.90;;;;;;5069619;28;20040;-61
2023/07/06 05:30:42;;;;;;;6.95;1.92;;;14.10;99.90;;;;;;5068581;28;20041;-61
2023/07/06 05:33:08;;;;;;;5.38;2.03;;;14.20;99.90;;;;;;5069193;28;20062;-61
2023/07/06 05:35:34;;;;;;;3.67;1.85;;;14.30;99.90;;;;;;5069345;28;20078;-61
2023/07/06 05:38:01;;;;;;;3.47;1.65;;;14.40;99.90;;;;;;5068151;28;20040;-61
2023/07/06 05:40:27;;;;;;;6.68;1.55;;;14.50;99.90;;;;;;5069383;28;20110;-61
2023/07/06 05:42:57;;;;;;;4.63;2.08;;;14.60;99.90;;;;;;5069107;28;20076;-61
2023/07/06 05:45:24;;;;;;;7.97;1.50;;;14.70;99.90;;;;;;5068537;28;20053;-61
2023/07/06 05:47:50;;;;;;;6.35;1.90;;;14.80;99.90;;;;;;5069477;28;20594;-61
2023/07/06 05:50:16;;;;;;;4.70;1.80;;;14.90;99.90;;;;;;5068847;28;20044;-61
2023/07/06 05:52:42;;;;;;;4.80;1.77;;;15.00;99.90;;;;;;5051365;28;20079;-61
2023/07/06 05:55:09;;;;;;;6.93;2.72;;;15.10;99.90;;;;;;5068750;28;20036;-61
2023/07/06 05:57:35;;;;;;;5.07;1.70;;;15.20;99.90;;;;;;5068450;28;20508;-61
2023/07/06 06:00:01;;;;;;;6.15;1.40;;;15.40;99.90;;;;;;5068741;28;20055;-62
2023/07/06 06:02:27;;;;;;;3.78;1.88;;;15.50;99.90;;;;;;5070280;28;20059;-61
2023/07/06 06:04:53;;;;;;;5.70;1.55;;;15.60;99.90;;;;;;5068475;28;20078;-61
2023/07/06 06:07:20;;;;;;;2.88;1.40;;;15.70;99.90;;;;;;5070475;28;20378;-61
2023/07/06 06:09:49;;;;;;;6.00;1.85;;;15.80;99.90;;;;;;5052100;28;20048;-61
2023/07/06 06:12:20;;;;;;;5.35;1.80;;;15.90;99.90;;;;;;5069646;28;20097;-61
2023/07/06 06:14:50;;;;;;;6.32;2.00;;;16.00;99.90;;;;;;5067140;28;20044;-62
2023/07/06 06:17:18;;;;;;;4.55;1.95;;;16.20;99.90;;;;;;5068832;28;20045;-61
2023/07/06 06:19:45;;;;;;;6.00;1.90;;;16.20;99.90;;;;;;5068098;28;20085;-61
2023/07/06 06:22:13;;;;;;;3.80;1.48;;;16.30;99.90;;;;;;5068993;28;20071;-62
2023/07/06 06:24:39;;;;;;;4.78;1.83;;;16.50;99.90;;;;;;5068978;28;20044;-62
2023/07/06 06:27:06;;;;;;;5.30;2.47;;;16.60;99.90;;;;;;5068325;28;20447;-62
2023/07/06 06:29:32;;;;;;;4.60;1.70;;;16.70;99.90;;;;;;5069780;28;20044;-62
2023/07/06 06:31:59;;;;;;;7.75;1.95;;;16.80;99.90;;;;;;5069719;28;20045;-61
2023/07/06 06:34:25;;;;;;;6.65;2.67;;;16.90;99.90;;;;;;5069409;28;20059;-62
2023/07/06 06:36:51;;;;;;;4.93;1.50;;;17.00;99.90;;;;;;5069964;28;20032;-62
2023/07/06 06:39:19;;;;;;;6.55;1.75;;;17.20;99.90;;;;;;5068876;28;20086;-62
2023/07/06 06:41:46;;;;;;;3.03;1.35;;;17.30;99.90;;;;;;5051472;28;20095;-62
2023/07/06 06:44:13;;;;;;;4.43;1.45;;;17.40;99.90;;;;;;5069878;28;20048;-62
2023/07/06 06:46:39;;;;;;;3.63;1.35;;;17.50;99.90;;;;;;5067764;28;20037;-62
2023/07/06 06:49:05;;;;;;;5.22;1.38;;;17.70;99.90;;;;;;5051979;28;20033;-62
2023/07/06 06:51:31;;;;;;;4.10;1.95;;;18.00;99.90;;;;;;5070762;28;20106;-62
2023/07/06 06:53:57;;;;;;;2.33;1.60;;;18.10;99.90;;;;;;5072925;28;20079;-62
2023/07/06 06:56:24;;;;;;;4.53;2.40;;;18.30;99.90;;;;;;5055481;28;20044;-62
2023/07/06 06:58:51;;;;;;;6.22;2.33;;;18.50;99.90;;;;;;5072168;28;20405;-63
2023/07/06 07:01:17;;;;;;;5.22;1.30;;;18.60;99.90;;;;;;5071468;28;20036;-62
2023/07/06 07:03:45;;;;;;;4.40;1.88;;;18.80;99.90;;;;;;5072021;28;20044;-62
2023/07/06 07:06:12;;;;;;;2.58;1.50;;;19.10;99.90;;;;;;5073421;28;20051;-62
2023/07/06 07:08:39;;;;;;;4.25;1.83;;;19.30;99.90;;;;;;5071535;28;20127;-62
2023/07/06 07:11:06;;;;;;;2.80;1.63;;;19.30;99.90;;;;;;5070083;28;20048;-62
2023/07/06 07:13:35;;;;;;;2.15;1.30;;;19.20;99.90;;;;;;5055198;28;20040;-62
2023/07/06 07:16:02;;;;;;;5.63;1.90;;;19.30;99.90;;;;;;5071188;28;20056;-63
2023/07/06 07:18:28;;;;;;;2.63;1.45;;;19.50;99.90;;;;;;5073042;28;20071;-62
2023/07/06 07:20:54;;;;;;;2.22;1.48;;;19.70;99.90;;;;;;5070872;28;20075;-63
2023/07/06 07:23:23;;;;;;;2.05;1.45;;;19.90;99.90;;;;;;5053564;28;20037;-62
2023/07/06 07:25:49;;;;;;;4.82;1.30;;;20.00;99.90;;;;;;5072759;28;20049;-62
2023/07/06 07:28:18;;;;;;;2.55;1.35;;;20.10;99.90;;;;;;5072702;28;20040;-62
2023/07/06 07:31:11;;;;;;;2.92;1.70;;;20.20;99.90;;;;;;5072122;28;20115;-62
2023/07/06 07:33:38;;;;;;;3.30;1.45;;;20.20;99.90;;;;;;5047375;28;20037;-63
2023/07/06 07:36:06;;;;;;;3.25;1.95;;;20.00;99.90;;;;;;5051682;28;20222;-62
2023/07/06 07:38:33;;;;;;;5.57;1.67;;;19.90;99.90;;;;;;5034902;28;20033;-63
2023/07/06 07:41:01;;;;;;;2.35;1.52;;;19.80;99.90;;;;;;5049910;28;20037;-62
2023/07/06 07:43:32;;;;;;;3.90;1.83;;;19.90;99.90;;;;;;5070562;28;20040;-63
2023/07/06 07:46:04;;;;;;;6.38;2.03;;;20.20;99.90;;;;;;5071368;28;20045;-62
2023/07/06 07:48:38;;;;;;;4.38;1.45;;;20.50;99.90;;;;;;5068907;28;20040;-62
2023/07/06 07:51:07;;;;;;;2.78;1.27;;;20.60;99.90;;;;;;5063768;28;20865;-63
2023/07/06 07:53:37;;;;;;;1.90;1.17;;;20.70;99.90;;;;;;5052497;28;20045;-62
2023/07/06 07:56:07;;;;;;;2.25;1.15;;;20.90;99.90;;;;;;5051319;28;20037;-63
2023/07/06 07:58:34;;;;;;;6.07;1.63;;;21.00;99.90;;;;;;5050294;28;20048;-63
2023/07/06 08:01:02;;;;;;;5.70;1.67;;;20.70;99.90;;;;;;5070466;28;20040;-63
2023/07/06 08:03:28;;;;;;;3.60;1.17;;;20.70;99.90;;;;;;5071434;28;20591;-63
2023/07/06 08:09:36;;;;;;;1.55;0.85;;;21.20;99.90;;;;;;5050996;28;20114;-63
2023/07/06 08:12:03;;;;;;;2.67;0.90;;;21.30;99.90;;;;;;5060106;28;20052;-66
2023/07/06 08:14:38;;;;;;;3.20;0.63;;;21.60;99.90;;;;;;5051744;28;20155;-64
2023/07/06 08:17:05;;;;;;;6.28;1.00;;;21.90;99.90;;;;;;5046810;28;20127;-64
2023/07/06 08:19:36;;;;;;;1.63;0.70;;;22.20;99.90;;;;;;5069830;28;20040;-63
2023/07/06 08:22:03;;;;;;;0.77;0.43;;;22.40;99.90;;;;;;5070738;28;20045;-64
2023/07/06 08:24:29;;;;;;;2.55;0.65;;;22.30;99.90;;;;;;5069577;28;20045;-64
2023/07/06 08:26:56;;;;;;;1.20;0.60;;;22.10;99.90;;;;;;5070164;28;20542;-63
2023/07/06 08:29:22;;;;;;;2.47;0.85;;;22.20;99.90;;;;;;5057636;28;20423;-64
2023/07/06 08:31:49;;;;;;;1.08;0.50;;;22.30;99.90;;;;;;5049465;28;20525;-64
2023/07/06 08:34:16;;;;;;;0.73;0.32;;;22.20;99.90;;;;;;5051540;28;20048;-63
2023/07/06 08:36:43;;;;;;;1.17;0.55;;;22.10;99.90;;;;;;5051322;28;20051;-63
2023/07/06 08:39:10;;;;;;;3.45;0.45;;;21.80;99.90;;;;;;5052273;28;20478;-63
2023/07/06 08:41:44;;;;;;;0.90;0.47;;;21.50;99.90;;;;;;5033626;28;20056;-64
2023/07/06 08:44:13;;;;;;;1.55;0.70;;;21.40;99.90;;;;;;5068086;28;20089;-64
2023/07/06 08:46:45;;;;;;;1.20;0.63;;;21.50;99.90;;;;;;5052664;28;20040;-64
2023/07/06 08:49:25;;;;;;;3.13;0.40;;;21.60;99.90;;;;;;5070874;28;20040;-65
2023/07/06 08:51:52;;;;;;;2.85;0.50;;;21.80;99.90;;;;;;5070741;28;20152;-64
2023/07/06 08:54:23;;;;;;;1.02;0.60;;;21.70;99.90;;;;;;5069228;28;20044;-63
2023/07/06 08:56:50;;;;;;;0.88;0.30;;;21.60;99.90;;;;;;5071274;28;20127;-66
2023/07/06 08:59:37;;;;;;;1.38;0.55;;;21.30;99.90;;;;;;5070810;28;20135;-64
2023/07/06 09:02:27;;;;;;;1.08;0.63;;;21.00;99.90;;;;;;5069785;28;20512;-64
2023/07/06 09:04:56;;;;;;;1.48;0.65;;;20.90;99.90;;;;;;5068983;28;20054;-63
2023/07/06 09:07:34;;;;;;;0.88;0.70;;;20.70;99.90;;;;;;5070169;28;20425;-64
2023/07/06 09:10:01;;;;;;;0.98;0.38;;;20.70;99.90;;;;;;5069839;28;20071;-63
2023/07/06 09:12:33;;;;;;;1.90;0.80;;;20.70;99.90;;;;;;5069266;28;20102;-63
2023/07/06 09:14:59;;;;;;;0.73;0.45;;;20.70;99.90;;;;;;5068858;28;20482;-63
2023/07/06 09:17:26;;;;;;;1.55;0.57;;;20.80;99.90;;;;;;5070701;28;20583;-63
2023/07/06 09:19:53;;;;;;;1.13;0.32;;;20.80;99.90;;;;;;5070639;28;20040;-63
2023/07/06 09:22:22;;;;;;;2.47;0.40;;;20.70;99.90;;;;;;5052392;28;20036;-63
2023/07/06 09:24:49;;;;;;;2.45;0.55;;;20.70;99.90;;;;;;5069289;28;20041;-63
2023/07/06 09:27:26;;;;;;;0.88;0.50;;;20.70;99.90;;;;;;5069403;28;20129;-62
2023/07/06 09:30:05;;;;;;;0.70;0.50;;;20.80;99.90;;;;;;5070674;28;20059;-63
2023/07/06 09:32:34;;;;;;;;;;;21.20;99.90;;;;;;5069587;28;20603;-63
2023/07/06 09:35:04;;;;;;;2.28;0.50;;;21.60;99.90;;;;;;5069796;28;20365;-63
2023/07/06 09:37:30;;;;;;;0.68;0.40;;;21.90;99.90;;;;;;5069251;28;20039;-63
2023/07/06 09:40:15;;;;;;;1.27;0.50;;;22.30;99.90;;;;;;5070523;28;20032;-64
2023/07/06 09:42:44;;;;;;;0.65;0.38;;;22.80;99.90;;;;;;5051959;28;20040;-63
2023/07/06 09:45:21;;;;;;;5.28;0.65;;;22.90;99.90;;;;;;5069140;28;20044;-62
2023/07/06 09:47:55;;;;;;;0.75;0.50;;;22.70;99.90;;;;;;5065015;28;20575;-63
2023/07/06 09:50:32;;;;;;;2.25;0.68;;;22.40;99.90;;;;;;5068020;28;20079;-63
2023/07/06 09:52:59;;;;;;;1.00;0.40;;;22.50;99.90;;;;;;5051812;28;20477;-63
2023/07/06 09:55:29;;;;;;;2.75;0.40;;;22.90;99.90;;;;;;5068891;28;20123;-63
2023/07/06 09:57:59;;;;;;;6.03;0.50;;;23.30;99.90;;;;;;5069908;28;20044;-63
2023/07/06 10:00:46;;;;;;;7.18;0.65;;;23.50;99.90;;;;;;5065000;28;20048;-64
2023/07/06 10:03:32;;;;;;;4.68;0.77;;;23.70;99.90;;;;;;5069336;28;20111;-63
2023/07/06 10:06:27;;;;;;;3.20;1.10;;;23.90;99.90;;;;;;5069999;28;20400;-63
2023/07/06 10:09:14;;;;;;;3.83;0.70;;;24.20;99.90;;;;;;5069809;28;20055;-63
2023/07/06 10:11:57;;;;;;;2.58;0.52;;;23.90;99.90;;;;;;5067818;28;20044;-63
2023/07/06 10:14:31;;;;;;;0.43;0.38;;;23.80;99.90;;;;;;5068965;28;20068;-63
2023/07/06 10:17:18;;;;;;;1.77;0.52;;;24.00;99.90;;;;;;5069193;28;20079;-65
2023/07/06 10:19:54;;;;;;;4.10;0.60;;;24.10;98.70;;;;;;5068500;28;20044;-63
2023/07/06 10:22:38;;;;;;;3.03;0.30;;;24.40;99.90;;;;;;5069905;28;20040;-63
2023/07/06 10:25:19;;;;;;;1.17;0.35;;;24.80;99.00;;;;;;5070440;28;20106;-64
2023/07/06 10:27:57;;;;;;;0.85;0.50;;;24.80;99.90;;;;;;5073714;28;20048;-65
2023/07/06 10:30:31;;;;;;;0.88;0.40;;;25.10;99.90;;;;;;5074114;28;20608;-64
2023/07/06 10:33:02;;;;;;;2.05;0.20;;;25.30;99.90;;;;;;5055860;28;20040;-65
2023/07/06 10:35:33;;;;;;;0.77;0.40;;;25.40;98.50;;;;;;5072758;28;20071;-64
2023/07/06 10:37:59;;;;;;;0.73;0.35;;;25.30;98.30;;;;;;5071929;28;20045;-65
2023/07/06 10:40:29;;;;;;;1.30;0.55;;;25.30;98.50;;;;;;5072557;28;20048;-64
2023/07/06 10:43:20;;;;;;;0.93;0.47;;;25.30;97.40;;;;;;5072152;28;20501;-63
2023/07/06 10:45:56;;;;;;;2.28;0.47;;;25.20;96.90;;;;;;5071582;28;20044;-64
2023/07/06 10:48:25;;;;;;;0.52;0.32;;;25.10;96.60;;;;;;5055311;28;20036;-64
2023/07/06 10:51:24;;;;;;;5.03;0.68;;;25.00;97.00;;;;;;5073432;28;20078;-64
2023/07/06 10:54:10;;;;;;;2.22;0.65;;;24.40;95.30;;;;;;5063581;28;20153;-63
2023/07/06 10:56:43;;;;;;;0.52;0.20;;;24.20;96.90;;;;;;5071786;28;20044;-63
2023/07/06 10:59:20;;;;;;;2.60;0.70;;;24.20;97.30;;;;;;5070755;28;20044;-64
2023/07/06 11:01:47;;;;;;;2.30;0.52;;;24.30;95.80;;;;;;5053190;28;20048;-64
2023/07/06 11:04:43;;;;;;;1.38;0.40;;;24.20;95.80;;;;;;5053412;28;20401;-64
2023/07/06 11:07:46;;;;;;;1.08;0.30;;;24.20;95.20;;;;;;5034926;28;20412;-63
2023/07/06 11:10:12;;;;;;;0.82;0.40;;;24.50;95.40;;;;;;5052234;28;20049;-64
2023/07/06 11:13:02;;;;;;;2.47;0.70;;;24.70;95.80;;;;;;5051289;28;20041;-63
2023/07/06 11:15:43;;;;;;;0.80;0.60;;;24.90;95.80;;;;;;5035056;28;20047;-64
2023/07/06 11:18:25;;;;;;;0.52;0.28;;;25.20;95.50;;;;;;5052018;28;20144;-64
2023/07/06 11:21:07;;;;;;;1.67;0.60;;;25.50;94.50;;;;;;5051048;28;20389;-64
2023/07/06 11:23:53;;;;;;;1.17;0.40;;;25.60;95.20;;;;;;5051758;28;20076;-64
2023/07/06 11:26:53;;;;;;;1.45;0.70;;;25.60;92.40;;;;;;5051536;28;20171;-64
2023/07/06 11:29:21;;;;;;;0.75;0.40;;;25.60;94.00;;;;;;4994490;28;20053;-61
2023/07/06 11:32:11;;;;;;;1.45;0.50;;;25.60;93.70;;;;;;4994104;28;20033;-62
2023/07/06 11:35:07;;;;;;;0.60;0.30;;;25.70;92.90;;;;;;4993662;28;20041;-62
2023/07/06 11:38:00;;;;;;;1.08;0.63;;;25.50;92.60;;;;;;4976488;28;20038;-61
2023/07/06 11:40:44;;;;;;;0.95;0.50;;;25.00;91.30;;;;;;5028433;28;20292;-61
2023/07/06 11:43:34;;;;;;;1.52;0.70;;;24.30;92.40;;;;;;5013634;28;20049;-61
2023/07/06 11:46:28;;;;;;;0.90;0.40;;;23.80;92.60;;;;;;5013436;28;20053;-61
2023/07/06 11:49:21;;;;;;;0.88;0.38;;;23.40;92.30;;;;;;5013054;28;20092;-61
2023/07/06 11:51:49;;;;;;;0.70;0.40;;;23.00;92.90;;;;;;5012718;28;20387;-61
2023/07/06 12:00:32;;;;;;;1.48;0.50;;;23.00;93.90;;;;;;4988553;28;20465;-61
2023/07/06 12:03:09;;;;;;;1.38;0.50;;;23.30;93.30;;;;;;5012809;28;20068;-61
2023/07/06 12:05:39;;;;;;;0.68;0.50;;;23.20;92.90;;;;;;5038171;28;20052;-63
2023/07/06 12:08:20;;;;;;;1.10;0.57;;;23.30;92.90;;;;;;5071997;28;20128;-61
2023/07/06 12:10:50;;;;;;;1.25;0.60;;;23.40;93.20;;;;;;5071304;28;20075;-61
2023/07/06 12:13:25;;;;;;;1.02;0.40;;;23.60;93.20;;;;;;5071718;28;20033;-62
2023/07/06 12:16:14;;;;;;;1.40;0.63;;;23.60;92.80;;;;;;5069621;28;20041;-62
2023/07/06 12:18:41;;;;;;;;;;;23.60;91.50;;;;;;5070951;28;20124;-61
2023/07/06 12:21:23;;;;;;;1.67;0.50;;;23.60;92.90;;;;;;5070597;28;19966;-62
2023/07/06 12:23:49;;;;;;;3.78;0.47;;;23.80;93.30;;;;;;5053270;28;20036;-62
2023/07/06 12:26:15;;;;;;;0.98;0.47;;;23.90;93.60;;;;;;5070644;28;20641;-62
2023/07/06 12:28:46;;;;;;;4.97;0.80;;;24.10;93.40;;;;;;5071795;28;20056;-62
2023/07/06 12:31:12;;;;;;;1.05;0.45;;;24.10;92.80;;;;;;5069938;28;20457;-61
2023/07/06 12:33:38;;;;;;;1.63;0.70;;;24.10;92.00;;;;;;5069960;28;20036;-61
2023/07/06 12:36:05;;;;;;;0.80;0.40;;;23.90;91.50;;;;;;5071283;28;20123;-61
2023/07/06 12:38:35;;;;;;;0.43;0.20;;;23.90;91.20;;;;;;5070789;28;20040;-62
2023/07/06 12:41:19;;;;;;;0.98;0.30;;;23.90;90.50;;;;;;5053074;28;20041;-61
2023/07/06 12:43:45;;;;;;;1.08;0.38;;;23.90;91.00;;;;;;5069534;28;20131;-62
2023/07/06 12:46:14;;;;;;;0.73;0.40;;;24.00;91.10;;;;;;5071523;28;20075;-62
2023/07/06 12:48:46;;;;;;;0.70;0.22;;;24.00;91.30;;;;;;5070029;28;20044;-62
2023/07/06 12:51:19;;;;;;;1.70;0.55;;;23.90;90.50;;;;;;5069005;28;20098;-61
2023/07/06 12:53:47;;;;;;;2.38;0.60;;;23.70;90.50;;;;;;5069752;28;20086;-62
2023/07/06 12:56:19;;;;;;;6.90;0.80;;;23.40;90.80;;;;;;5070071;28;20461;-62
2023/07/06 12:58:57;;;;;;;2.25;0.50;;;23.40;91.30;;;;;;5069277;28;20044;-62
2023/07/06 13:01:35;;;;;;;1.88;0.60;;;23.40;91.10;;;;;;5071127;28;20033;-62
2023/07/06 13:04:12;;;;;;;0.33;0.20;;;23.40;90.80;;;;;;5056891;28;20175;-62
2023/07/06 13:06:46;;;;;;;1.80;0.50;;;23.20;91.10;;;;;;5049348;28;20381;-62
2023/07/06 13:09:34;;;;;;;1.25;0.60;;;23.20;91.10;;;;;;5052374;28;20478;-62
2023/07/06 13:12:07;;;;;;;1.67;0.32;;;23.20;90.90;;;;;;5048915;28;20056;-62
2023/07/06 13:14:38;;;;;;;1.75;0.95;;;23.10;91.20;;;;;;5050991;28;20065;-62
2023/07/06 13:17:25;;;;;;;3.67;0.55;;;23.20;91.40;;;;;;5049637;28;20090;-63
2023/07/06 13:19:54;;;;;;;2.17;0.57;;;23.30;90.80;;;;;;5050130;28;20148;-62